Rechercher aéroport 
image banner adimage banner adimage banner ad
image banner ad

98L - Pomona Police Dept

Situé à Pomona, United States

ICAO - 98L, IATA -

Données fournies par Airmate  

Information générale

Coordonnées: N34°3'7" W117°47'31"
Élévation : 1001 feet MSL.
Variation magnétique : 14° East
Voir autres Aéroports à California

Données opérationnelles

Special qualification required
Heure actuelle UTC:
Heure actuelle locale:
Météo à : KPOC - Brackett Field ( 5 km )
METAR: KPOC 251447Z 28003KT 10SM CLR 18/16 A3002
Voir NOTAMs / SUP AIP / TFR affectant cet aéroport [VIEW]
Fréquences de communication: [VIEW]

Pistes:

Coordonnées de l'aéroport

Adresse: Pomona United States

Vue satellite de 98L